createdAt,value
2019-02-17T00:00:39.982Z,3.60
2019-02-17T00:03:09.262Z,3.60
2019-02-17T00:05:38.533Z,3.60
2019-02-17T00:08:07.770Z,3.60
2019-02-17T00:10:37.019Z,3.60
2019-02-17T00:13:06.325Z,3.60
2019-02-17T00:15:35.689Z,3.60
2019-02-17T00:18:05.030Z,3.60
2019-02-17T00:20:34.271Z,3.50
2019-02-17T00:23:03.541Z,3.50
2019-02-17T00:25:32.873Z,3.50
2019-02-17T00:28:02.246Z,3.50
2019-02-17T00:30:31.569Z,3.50
2019-02-17T00:33:00.849Z,3.50
2019-02-17T00:35:30.112Z,3.50
2019-02-17T00:37:59.413Z,3.50
2019-02-17T00:40:28.649Z,3.40
2019-02-17T00:42:57.961Z,3.40
2019-02-17T00:45:27.190Z,3.40
2019-02-17T00:47:56.469Z,3.40
2019-02-17T00:50:26.253Z,3.40
2019-02-17T00:52:55.533Z,3.40
2019-02-17T00:55:24.797Z,3.40
2019-02-17T00:57:54.126Z,3.40
2019-02-17T01:00:23.409Z,3.40
2019-02-17T01:02:52.898Z,3.40
2019-02-17T01:05:22.342Z,3.40
2019-02-17T01:07:51.638Z,3.40
2019-02-17T01:10:20.881Z,3.40
2019-02-17T01:12:50.261Z,3.40
2019-02-17T01:15:19.576Z,3.40
2019-02-17T01:17:49.152Z,3.40
2019-02-17T01:20:18.411Z,3.40
2019-02-17T01:22:47.731Z,3.40
2019-02-17T01:25:16.979Z,3.40
2019-02-17T01:27:46.336Z,3.30
2019-02-17T01:30:15.803Z,3.30
2019-02-17T01:32:45.103Z,3.30
2019-02-17T01:35:14.579Z,3.30
2019-02-17T01:37:43.866Z,3.30
2019-02-17T01:40:13.816Z,3.20
2019-02-17T01:42:43.185Z,3.20
2019-02-17T01:45:12.670Z,3.20
2019-02-17T01:47:42.030Z,3.10
2019-02-17T01:50:11.342Z,3.10
2019-02-17T01:52:40.742Z,3.10
2019-02-17T01:55:09.989Z,3.10
2019-02-17T01:57:39.310Z,3.10
2019-02-17T02:00:10.672Z,3.10
2019-02-17T02:02:39.938Z,3.10
2019-02-17T02:05:09.317Z,3.00
2019-02-17T02:07:38.565Z,3.00
2019-02-17T02:10:08.285Z,3.00
2019-02-17T02:12:37.544Z,3.00
2019-02-17T02:15:07.420Z,3.00
2019-02-17T02:17:36.741Z,3.00
2019-02-17T02:20:07.436Z,3.00
2019-02-17T02:22:36.736Z,3.00
2019-02-17T02:25:06.371Z,3.00
2019-02-17T02:27:35.712Z,3.00
2019-02-17T02:30:06.138Z,3.00
2019-02-17T02:32:35.460Z,2.90
2019-02-17T02:35:05.013Z,2.90
2019-02-17T02:37:34.271Z,3.00
2019-02-17T02:40:03.578Z,3.00
2019-02-17T02:42:32.855Z,2.90
2019-02-17T02:45:02.177Z,2.90
2019-02-17T02:47:31.450Z,2.90
2019-02-17T02:50:00.730Z,2.90
2019-02-17T02:52:30.130Z,2.80
2019-02-17T02:54:59.458Z,2.80
2019-02-17T02:57:28.765Z,2.80
2019-02-17T02:59:58.104Z,2.80
2019-02-17T03:02:27.487Z,2.80
2019-02-17T03:04:56.735Z,2.80
2019-02-17T03:07:26.043Z,2.90
2019-02-17T03:09:55.379Z,2.90
2019-02-17T03:12:24.749Z,2.80
2019-02-17T03:14:54.047Z,2.80
2019-02-17T03:17:23.403Z,2.80
2019-02-17T03:19:52.662Z,2.70
2019-02-17T03:22:21.986Z,2.70
2019-02-17T03:24:51.233Z,2.70
2019-02-17T03:27:20.497Z,2.70
2019-02-17T03:29:49.746Z,2.70
2019-02-17T03:32:19.030Z,2.70
2019-02-17T03:34:48.367Z,2.70
2019-02-17T03:37:18.155Z,2.60
2019-02-17T03:39:47.490Z,2.60
2019-02-17T03:42:16.782Z,2.60
2019-02-17T03:44:46.028Z,2.60
2019-02-17T03:47:15.287Z,2.60
2019-02-17T03:49:44.667Z,2.50
2019-02-17T03:52:13.971Z,2.50
2019-02-17T03:54:43.272Z,2.50
2019-02-17T03:57:12.596Z,2.50
2019-02-17T03:59:41.906Z,2.50
2019-02-17T04:02:11.067Z,2.50
2019-02-17T04:04:40.354Z,2.50
2019-02-17T04:07:09.661Z,2.50
2019-02-17T04:09:38.964Z,2.50
2019-02-17T04:12:08.285Z,2.40
2019-02-17T04:14:37.648Z,2.50
2019-02-17T04:17:06.874Z,2.40
2019-02-17T04:19:36.150Z,2.40
2019-02-17T04:22:05.409Z,2.40
2019-02-17T04:24:34.815Z,2.40
2019-02-17T04:27:04.078Z,2.40
2019-02-17T04:29:33.365Z,2.40
2019-02-17T04:32:02.645Z,2.40
2019-02-17T04:34:31.890Z,2.50
2019-02-17T04:37:01.157Z,2.50
2019-02-17T04:39:30.389Z,2.60
2019-02-17T04:41:59.644Z,2.70
2019-02-17T04:44:28.938Z,2.70
2019-02-17T04:46:58.252Z,2.80
2019-02-17T04:49:27.552Z,2.80
2019-02-17T04:51:56.841Z,2.80
2019-02-17T04:54:26.167Z,2.80
2019-02-17T04:56:55.445Z,2.80
2019-02-17T04:59:24.796Z,2.80
2019-02-17T05:01:54.056Z,2.80
2019-02-17T05:04:23.436Z,2.80
2019-02-17T05:06:52.780Z,2.90
2019-02-17T05:09:22.064Z,2.90
2019-02-17T05:11:51.416Z,2.90
2019-02-17T05:14:20.672Z,3.00
2019-02-17T05:16:49.928Z,3.00
2019-02-17T05:19:19.187Z,3.00
2019-02-17T05:21:48.540Z,3.10
2019-02-17T05:24:17.781Z,3.10
2019-02-17T05:26:47.068Z,3.10
2019-02-17T05:29:16.356Z,3.00
2019-02-17T05:31:45.699Z,3.00
2019-02-17T05:34:14.958Z,2.90
2019-02-17T05:36:44.224Z,2.90
2019-02-17T05:39:13.563Z,2.80
2019-02-17T05:41:42.881Z,2.80
2019-02-17T05:44:12.263Z,2.80
2019-02-17T05:46:41.511Z,2.80
2019-02-17T05:49:10.858Z,2.70
2019-02-17T05:51:40.343Z,2.70
2019-02-17T05:54:10.020Z,2.70
2019-02-17T05:56:39.351Z,2.70
2019-02-17T05:59:08.665Z,2.70
2019-02-17T06:01:38.003Z,2.70
2019-02-17T06:04:07.328Z,2.80
2019-02-17T06:06:36.580Z,2.80
2019-02-17T06:09:06.596Z,2.90
2019-02-17T06:11:35.955Z,3.00
2019-02-17T06:14:05.300Z,3.10
2019-02-17T06:16:34.655Z,3.10
2019-02-17T06:19:03.959Z,3.20
2019-02-17T06:21:33.284Z,3.20
2019-02-17T06:24:02.663Z,3.30
2019-02-17T06:26:31.923Z,3.30
2019-02-17T06:29:01.177Z,3.40
2019-02-17T06:31:30.555Z,3.40
2019-02-17T06:33:59.875Z,3.50
2019-02-17T06:36:29.187Z,3.50
2019-02-17T06:38:58.465Z,3.50
2019-02-17T06:41:28.015Z,3.50
2019-02-17T06:43:57.263Z,3.60
2019-02-17T06:46:31.224Z,3.70
2019-02-17T06:49:00.499Z,3.70
2019-02-17T06:51:29.799Z,3.80
2019-02-17T06:53:59.111Z,3.90
2019-02-17T06:56:41.926Z,3.90
2019-02-17T06:59:11.219Z,3.90
2019-02-17T07:01:40.459Z,4.00
2019-02-17T07:04:09.770Z,4.00
2019-02-17T07:06:42.794Z,4.00
2019-02-17T07:09:12.015Z,4.10
2019-02-17T07:11:41.999Z,4.10
2019-02-17T07:14:11.279Z,4.10
2019-02-17T07:16:41.067Z,4.10
2019-02-17T07:19:11.259Z,4.20
2019-02-17T07:21:40.515Z,4.20
2019-02-17T07:24:09.771Z,4.30
2019-02-17T07:26:39.059Z,4.30
2019-02-17T07:29:08.374Z,4.40
2019-02-17T07:31:37.639Z,4.50
2019-02-17T07:34:08.726Z,4.50
2019-02-17T07:36:38.081Z,4.50
2019-02-17T07:39:07.443Z,4.50
2019-02-17T07:41:36.775Z,4.60
2019-02-17T07:44:06.055Z,4.60
2019-02-17T07:46:35.303Z,4.70
2019-02-17T07:49:04.736Z,4.70
2019-02-17T07:51:34.042Z,4.80
2019-02-17T07:54:03.327Z,4.80
2019-02-17T07:56:32.675Z,4.80
2019-02-17T07:59:01.970Z,4.90
2019-02-17T08:01:31.302Z,5.00
2019-02-17T08:04:00.522Z,5.00
2019-02-17T08:06:29.754Z,5.00
2019-02-17T08:09:01.074Z,5.10
2019-02-17T08:11:30.378Z,5.10
2019-02-17T08:13:59.766Z,5.20
2019-02-17T08:16:29.022Z,5.20
2019-02-17T08:18:58.384Z,5.30
2019-02-17T08:21:27.629Z,5.30
2019-02-17T08:23:56.991Z,5.30
2019-02-17T08:26:26.246Z,5.40
2019-02-17T08:28:55.606Z,5.40
2019-02-17T08:31:24.943Z,5.50
2019-02-17T08:33:54.405Z,5.50
2019-02-17T08:36:23.674Z,5.60
2019-02-17T08:38:52.967Z,5.60
2019-02-17T08:41:22.222Z,5.60
2019-02-17T08:43:51.686Z,5.60
2019-02-17T08:46:20.993Z,5.60
2019-02-17T08:48:50.246Z,5.50
2019-02-17T08:51:19.532Z,5.50
2019-02-17T08:53:48.894Z,5.50
2019-02-17T08:56:19.011Z,5.50
2019-02-17T08:58:49.718Z,5.50
2019-02-17T09:01:19.043Z,5.50
2019-02-17T09:03:48.302Z,5.60
2019-02-17T09:06:17.513Z,5.60
2019-02-17T09:08:47.017Z,5.70
2019-02-17T09:11:16.477Z,5.70
2019-02-17T09:13:45.767Z,5.80
2019-02-17T09:16:15.332Z,5.80
2019-02-17T09:18:44.697Z,6.00
2019-02-17T09:21:13.982Z,6.10
2019-02-17T09:23:43.233Z,6.20
2019-02-17T09:26:12.521Z,6.30
2019-02-17T09:28:41.881Z,6.40
2019-02-17T09:31:11.201Z,6.50
2019-02-17T09:33:40.565Z,6.50
2019-02-17T09:36:09.845Z,6.60
2019-02-17T09:38:39.156Z,6.70
2019-02-17T09:41:09.276Z,6.80
2019-02-17T09:43:38.512Z,6.80
2019-02-17T09:46:07.780Z,6.90
2019-02-17T09:48:37.076Z,7.00
2019-02-17T09:51:06.428Z,7.00
2019-02-17T09:53:35.880Z,7.10
2019-02-17T09:56:05.133Z,7.10
2019-02-17T09:58:34.420Z,7.20
2019-02-17T10:01:03.900Z,7.20
2019-02-17T10:03:33.264Z,7.20
2019-02-17T10:06:02.618Z,7.30
2019-02-17T10:08:31.871Z,7.30
2019-02-17T10:11:01.140Z,7.30
2019-02-17T10:13:30.536Z,7.30
2019-02-17T10:15:59.844Z,7.40
2019-02-17T10:18:29.175Z,7.40
2019-02-17T10:20:58.576Z,7.40
2019-02-17T10:23:27.899Z,7.50
2019-02-17T10:25:57.192Z,7.50
2019-02-17T10:28:26.471Z,7.60
2019-02-17T10:30:55.885Z,7.60
2019-02-17T10:33:25.127Z,7.60
2019-02-17T10:35:54.535Z,7.70
2019-02-17T10:38:23.859Z,7.70
2019-02-17T10:40:53.171Z,7.80
2019-02-17T10:43:22.427Z,7.80
2019-02-17T10:45:51.895Z,7.90
2019-02-17T10:48:21.303Z,7.90
2019-02-17T10:50:50.599Z,7.90
2019-02-17T10:53:19.967Z,8.00
2019-02-17T10:55:49.243Z,8.10
2019-02-17T10:58:18.527Z,8.10
2019-02-17T11:00:48.015Z,8.20
2019-02-17T11:03:17.342Z,8.20
2019-02-17T11:05:46.658Z,8.20
2019-02-17T11:08:15.971Z,8.30
2019-02-17T11:10:45.238Z,8.30
2019-02-17T11:13:14.537Z,8.30
2019-02-17T11:15:43.918Z,8.40
2019-02-17T11:18:13.224Z,8.40
2019-02-17T11:20:42.479Z,8.50
2019-02-17T11:23:11.801Z,8.50
2019-02-17T11:25:41.054Z,8.60
2019-02-17T11:28:10.370Z,8.60
2019-02-17T11:30:39.694Z,8.60
2019-02-17T11:33:09.018Z,8.70
2019-02-17T11:35:38.251Z,8.70
2019-02-17T11:38:07.563Z,8.80
2019-02-17T11:40:36.814Z,8.80
2019-02-17T11:43:06.118Z,8.90
2019-02-17T11:45:35.494Z,8.90
2019-02-17T11:48:04.811Z,9.00
2019-02-17T11:50:34.070Z,9.00
2019-02-17T11:53:03.402Z,9.10
2019-02-17T11:55:32.690Z,9.10
2019-02-17T11:58:02.098Z,9.10
2019-02-17T12:00:31.426Z,9.10
2019-02-17T12:03:07.526Z,9.20
2019-02-17T12:05:32.110Z,9.20
2019-02-17T12:08:01.430Z,9.20
2019-02-17T12:10:30.850Z,9.20
2019-02-17T12:13:00.738Z,9.20
2019-02-17T12:15:29.998Z,9.30
2019-02-17T12:17:59.421Z,9.30
2019-02-17T12:21:03.210Z,9.30
2019-02-17T12:23:39.132Z,9.30
2019-02-17T12:26:15.834Z,9.30
2019-02-17T12:28:56.234Z,9.40
2019-02-17T12:31:30.364Z,9.40
2019-02-17T12:33:59.958Z,9.40
2019-02-17T12:36:29.833Z,9.40
2019-02-17T12:38:59.105Z,9.40
2019-02-17T12:41:30.254Z,9.40
2019-02-17T12:43:59.478Z,9.50
2019-02-17T12:46:28.769Z,9.50
2019-02-17T12:48:58.101Z,9.50
2019-02-17T12:51:27.393Z,9.60
2019-02-17T12:53:56.745Z,9.60
2019-02-17T12:56:27.949Z,9.60
2019-02-17T12:58:57.245Z,9.60
2019-02-17T13:01:26.585Z,9.60
2019-02-17T13:03:55.877Z,9.60
2019-02-17T13:06:26.671Z,9.60
2019-02-17T13:08:56.038Z,9.60
2019-02-17T13:11:25.405Z,9.60
2019-02-17T13:13:54.709Z,9.60
2019-02-17T13:16:23.992Z,9.60
2019-02-17T13:18:53.353Z,9.60
2019-02-17T13:21:22.651Z,9.60
2019-02-17T13:23:51.904Z,9.60
2019-02-17T13:26:21.199Z,9.60
2019-02-17T13:28:51.160Z,9.50
2019-02-17T13:31:20.453Z,9.50
2019-02-17T13:33:50.359Z,9.50
2019-02-17T13:36:20.224Z,9.50
2019-02-17T13:38:49.461Z,9.50
2019-02-17T13:41:19.428Z,9.50
2019-02-17T13:43:49.504Z,9.50
2019-02-17T13:46:18.768Z,9.50
2019-02-17T13:48:48.932Z,9.50
2019-02-17T13:51:18.536Z,9.50
2019-02-17T13:53:48.368Z,9.50
2019-02-17T13:56:18.244Z,9.50
2019-02-17T13:58:47.550Z,9.50
2019-02-17T14:01:16.900Z,9.50
2019-02-17T14:03:48.849Z,9.50
2019-02-17T14:06:17.312Z,9.40
2019-02-17T14:08:46.680Z,9.40
2019-02-17T14:11:15.948Z,9.40
2019-02-17T14:13:45.244Z,9.50
2019-02-17T14:16:14.500Z,9.40
2019-02-17T14:18:43.849Z,9.40
2019-02-17T14:21:13.116Z,9.40
2019-02-17T14:23:42.875Z,9.40
2019-02-17T14:26:12.692Z,9.40
2019-02-17T14:28:42.107Z,9.40
2019-02-17T14:31:12.190Z,9.40
2019-02-17T14:33:42.179Z,9.40
2019-02-17T14:36:12.109Z,9.40
2019-02-17T14:38:41.904Z,9.30
2019-02-17T14:41:11.637Z,9.30
2019-02-17T14:43:42.024Z,9.30
2019-02-17T14:46:11.928Z,9.30
2019-02-17T14:48:41.505Z,9.30
2019-02-17T14:51:11.102Z,9.30
2019-02-17T14:53:40.352Z,9.30
2019-02-17T14:56:10.438Z,9.30
2019-02-17T14:58:40.504Z,9.30
2019-02-17T15:01:10.024Z,9.30
2019-02-17T15:03:39.616Z,9.20
2019-02-17T15:06:09.516Z,9.20
2019-02-17T15:08:39.564Z,9.20
2019-02-17T15:11:08.868Z,9.20
2019-02-17T15:13:38.177Z,9.20
2019-02-17T15:16:07.928Z,9.20
2019-02-17T15:18:37.604Z,9.20
2019-02-17T15:21:07.356Z,9.20
2019-02-17T15:23:37.044Z,9.10
2019-02-17T15:26:06.351Z,9.10
2019-02-17T15:28:35.611Z,9.10
2019-02-17T15:31:05.037Z,9.10
2019-02-17T15:33:34.315Z,9.10
2019-02-17T15:36:03.609Z,9.10
2019-02-17T15:38:32.863Z,9.10
2019-02-17T15:41:02.153Z,9.10
2019-02-17T15:43:31.495Z,9.10
2019-02-17T15:46:00.778Z,9.00
2019-02-17T15:48:30.055Z,9.00
2019-02-17T15:51:06.249Z,9.00
2019-02-17T15:53:31.110Z,9.00
2019-02-17T15:56:01.594Z,9.00
2019-02-17T15:58:31.806Z,9.00
2019-02-17T16:01:01.067Z,9.00
2019-02-17T16:03:30.471Z,9.00
2019-02-17T16:05:59.731Z,9.00
2019-02-17T16:08:28.986Z,9.00
2019-02-17T16:10:58.295Z,9.00
2019-02-17T16:13:27.659Z,9.00
2019-02-17T16:15:56.957Z,9.00
2019-02-17T16:18:26.211Z,9.00
2019-02-17T16:20:56.303Z,9.00
2019-02-17T16:23:25.550Z,9.00
2019-02-17T16:25:54.850Z,9.00
2019-02-17T16:28:24.163Z,9.00
2019-02-17T16:30:53.447Z,8.90
2019-02-17T16:33:22.756Z,8.90
2019-02-17T16:35:52.009Z,8.90
2019-02-17T16:38:21.650Z,8.90
2019-02-17T16:40:50.883Z,8.90
2019-02-17T16:43:20.173Z,8.90
2019-02-17T16:45:49.410Z,8.90
2019-02-17T16:48:18.666Z,8.90
2019-02-17T16:50:48.050Z,8.90
2019-02-17T16:53:17.226Z,8.90
2019-02-17T16:55:46.818Z,8.90
2019-02-17T16:58:16.126Z,8.90
2019-02-17T17:00:45.418Z,8.90
2019-02-17T17:03:14.769Z,8.90
2019-02-17T17:05:44.022Z,8.90
2019-02-17T17:08:13.424Z,8.90
2019-02-17T17:10:42.624Z,8.90
2019-02-17T17:13:11.918Z,8.90
2019-02-17T17:15:41.179Z,8.90
2019-02-17T17:18:10.473Z,8.90
2019-02-17T17:20:39.717Z,8.90
2019-02-17T17:23:09.850Z,8.90
2019-02-17T17:25:39.589Z,8.90
2019-02-17T17:28:09.637Z,8.90
2019-02-17T17:30:38.893Z,8.90
2019-02-17T17:33:08.166Z,8.90
2019-02-17T17:35:37.540Z,8.90
2019-02-17T17:38:06.833Z,8.90
2019-02-17T17:40:36.235Z,8.90
2019-02-17T17:43:05.517Z,8.90
2019-02-17T17:45:34.901Z,8.90
2019-02-17T17:48:04.204Z,8.90
2019-02-17T17:50:33.497Z,8.90
2019-02-17T17:53:02.745Z,8.90
2019-02-17T17:55:32.081Z,8.90
2019-02-17T17:58:01.357Z,8.90
2019-02-17T18:00:32.223Z,8.90
2019-02-17T18:03:01.509Z,8.90
2019-02-17T18:05:30.780Z,8.90
2019-02-17T18:08:00.429Z,8.90
2019-02-17T18:10:29.816Z,8.90
2019-02-17T18:12:59.144Z,8.90
2019-02-17T18:15:28.433Z,8.90
2019-02-17T18:17:57.795Z,8.80
2019-02-17T18:20:27.540Z,8.90
2019-02-17T18:22:56.804Z,8.90
2019-02-17T18:25:26.064Z,8.80
2019-02-17T18:27:55.408Z,8.80
2019-02-17T18:30:24.728Z,8.80
2019-02-17T18:32:54.100Z,8.90
2019-02-17T18:35:23.392Z,8.80
2019-02-17T18:37:52.644Z,8.80
2019-02-17T18:40:21.940Z,8.80
2019-02-17T18:42:51.239Z,8.80
2019-02-17T18:45:20.484Z,8.80
2019-02-17T18:47:49.859Z,8.80
2019-02-17T18:50:19.123Z,8.80
2019-02-17T18:52:48.371Z,8.80
2019-02-17T18:55:18.282Z,8.80
2019-02-17T18:57:50.434Z,8.80
2019-02-17T19:00:18.955Z,8.80
2019-02-17T19:02:48.327Z,8.80
2019-02-17T19:05:20.022Z,8.80
2019-02-17T19:07:48.528Z,8.80
2019-02-17T19:10:17.908Z,8.80
2019-02-17T19:12:47.240Z,8.80
2019-02-17T19:15:16.599Z,8.80
2019-02-17T19:17:45.896Z,8.80
2019-02-17T19:20:17.201Z,8.80
2019-02-17T19:22:46.492Z,8.80
2019-02-17T19:25:15.791Z,8.80
2019-02-17T19:27:45.052Z,8.80
2019-02-17T19:30:14.854Z,8.70
2019-02-17T19:32:44.117Z,8.70
2019-02-17T19:35:13.748Z,8.70
2019-02-17T19:37:43.125Z,8.70
2019-02-17T19:40:13.003Z,8.70
2019-02-17T19:42:42.284Z,8.70
2019-02-17T19:45:12.389Z,8.70
2019-02-17T19:47:41.791Z,8.70
2019-02-17T19:50:12.175Z,8.70
2019-02-17T19:52:41.431Z,8.60
2019-02-17T19:55:10.930Z,8.60
2019-02-17T19:57:40.267Z,8.60
2019-02-17T20:00:11.083Z,8.60
2019-02-17T20:03:14.867Z,8.60
2019-02-17T20:05:52.079Z,8.60
2019-02-17T20:08:17.643Z,8.50
2019-02-17T20:10:46.911Z,8.40
2019-02-17T20:13:16.215Z,8.40
2019-02-17T20:15:45.479Z,8.30
2019-02-17T20:18:14.726Z,8.20
2019-02-17T20:20:44.033Z,8.10
2019-02-17T20:23:13.280Z,8.00
2019-02-17T20:25:42.612Z,8.00
2019-02-17T20:28:11.978Z,7.90
2019-02-17T20:30:41.314Z,7.80
2019-02-17T20:33:10.707Z,7.70
2019-02-17T20:35:39.967Z,7.70
2019-02-17T20:38:09.188Z,7.60
2019-02-17T20:40:38.462Z,7.50
2019-02-17T20:43:07.708Z,7.40
2019-02-17T20:45:37.072Z,7.30
2019-02-17T20:48:06.314Z,7.30
2019-02-17T20:50:35.586Z,7.20
2019-02-17T20:53:04.852Z,7.20
2019-02-17T20:55:34.018Z,7.10
2019-02-17T20:58:03.319Z,7.10
2019-02-17T21:00:32.606Z,7.00
2019-02-17T21:03:01.967Z,6.90
2019-02-17T21:05:31.334Z,6.90
2019-02-17T21:08:00.630Z,6.90
2019-02-17T21:10:29.955Z,6.80
2019-02-17T21:12:59.231Z,6.80
2019-02-17T21:15:28.494Z,6.70
2019-02-17T21:17:57.745Z,6.70
2019-02-17T21:20:27.207Z,6.60
2019-02-17T21:22:56.506Z,6.50
2019-02-17T21:25:25.865Z,6.50
2019-02-17T21:27:55.050Z,6.50
2019-02-17T21:30:24.381Z,6.40
2019-02-17T21:32:53.678Z,6.40
2019-02-17T21:35:23.118Z,6.40
2019-02-17T21:37:52.377Z,6.40
2019-02-17T21:40:21.668Z,6.30
2019-02-17T21:42:51.034Z,6.30
2019-02-17T21:45:20.546Z,6.20
2019-02-17T21:47:49.810Z,6.20
2019-02-17T21:50:19.145Z,6.10
2019-02-17T21:52:48.450Z,6.00
2019-02-17T21:55:17.718Z,6.00
2019-02-17T21:57:47.069Z,6.00
2019-02-17T22:00:16.781Z,6.00
2019-02-17T22:02:46.041Z,5.90
2019-02-17T22:05:15.650Z,5.90
2019-02-17T22:07:45.015Z,5.90
2019-02-17T22:10:14.723Z,5.90
2019-02-17T22:12:44.001Z,5.80
2019-02-17T22:15:14.667Z,5.80
2019-02-17T22:17:43.950Z,5.70
2019-02-17T22:20:13.306Z,5.70
2019-02-17T22:22:42.665Z,5.70
2019-02-17T22:25:11.930Z,5.60
2019-02-17T22:27:41.292Z,5.60
2019-02-17T22:30:10.732Z,5.60
2019-02-17T22:32:39.967Z,5.60
2019-02-17T22:35:09.465Z,5.60
2019-02-17T22:37:38.797Z,5.50
2019-02-17T22:40:08.800Z,5.50
2019-02-17T22:42:38.180Z,5.40
2019-02-17T22:45:07.852Z,5.40
2019-02-17T22:47:37.126Z,5.40
2019-02-17T22:50:07.640Z,5.40
2019-02-17T22:52:37.004Z,5.30
2019-02-17T22:55:07.300Z,5.30
2019-02-17T22:57:36.644Z,5.30
2019-02-17T23:00:24.832Z,5.20
2019-02-17T23:02:54.224Z,5.20
2019-02-17T23:05:23.604Z,5.20
2019-02-17T23:07:52.966Z,5.10
2019-02-17T23:10:22.240Z,5.10
2019-02-17T23:12:51.572Z,5.10
2019-02-17T23:15:20.956Z,5.00
2019-02-17T23:17:50.223Z,5.00
2019-02-17T23:20:19.520Z,4.90
2019-02-17T23:22:48.903Z,4.90
2019-02-17T23:25:18.392Z,4.90
2019-02-17T23:27:47.931Z,4.90
2019-02-17T23:30:17.287Z,4.90
2019-02-17T23:32:46.584Z,4.90
2019-02-17T23:35:15.847Z,4.90
2019-02-17T23:37:45.201Z,4.90
2019-02-17T23:40:14.411Z,4.80
2019-02-17T23:42:43.775Z,4.80
2019-02-17T23:45:13.429Z,4.80
2019-02-17T23:47:42.839Z,4.70
2019-02-17T23:50:12.507Z,4.70
2019-02-17T23:52:42.393Z,4.70
2019-02-17T23:55:11.762Z,4.60
2019-02-17T23:57:41.447Z,4.60
